Houston, Texas
Traffic Map
Current Weather Conditions
Houston, Texas
Scattered Clouds
Scattered Clouds
28°
Feels Like: 30°
Wind Chill: 28° Ceiling: Unl
Heat Index: 30° Visibility: 10mi
Dew Point: 22° Wind: 10mph
Humidity: 69% Direction: 120° (ESE)
Pressure: 29.9in Gusts: 0mph
Raw Report DataKIAH 302353Z 12009KT 10SM FEW035 SCT250 28/22 A2990 RMK AO2 SLP125 T02780217 10294 20261 58012
Traffic Incident Summary
Active as of:
Severity:
Category:
InformationThere was an issue retrieving the traffic information for this location. Please try a different location or try again shortly.
Advertisements
Track Severe Weather on mobile